sensor_id;sensor_type;location;lat;lon;timestamp;P1;durP1;ratioP1;P2;durP2;ratioP2
8399;SDS011;4237;47.030;15.396;2022-08-23T00:01:38;0.50;;;0.50;;
8399;SDS011;4237;47.030;15.396;2022-08-23T00:04:11;0.80;;;0.63;;
8399;SDS011;4237;47.030;15.396;2022-08-23T00:06:41;0.60;;;0.50;;
8399;SDS011;4237;47.030;15.396;2022-08-23T00:09:10;0.67;;;0.50;;
8399;SDS011;4237;47.030;15.396;2022-08-23T00:14:24;0.37;;;0.30;;
8399;SDS011;4237;47.030;15.396;2022-08-23T00:16:55;1.40;;;0.40;;
8399;SDS011;4237;47.030;15.396;2022-08-23T00:19:25;0.23;;;0.23;;
8399;SDS011;4237;47.030;15.396;2022-08-23T00:21:54;0.33;;;0.33;;
8399;SDS011;4237;47.030;15.396;2022-08-23T00:24:24;3.63;;;2.00;;
8399;SDS011;4237;47.030;15.396;2022-08-23T00:27:13;2.10;;;1.90;;
8399;SDS011;4237;47.030;15.396;2022-08-23T00:29:32;1.70;;;1.60;;
8399;SDS011;4237;47.030;15.396;2022-08-23T00:32:03;1.90;;;1.80;;
8399;SDS011;4237;47.030;15.396;2022-08-23T00:34:36;2.30;;;2.07;;
8399;SDS011;4237;47.030;15.396;2022-08-23T00:37:07;2.50;;;2.17;;
8399;SDS011;4237;47.030;15.396;2022-08-23T00:39:37;1.90;;;1.77;;
8399;SDS011;4237;47.030;15.396;2022-08-23T00:45:03;1.20;;;1.10;;
8399;SDS011;4237;47.030;15.396;2022-08-23T00:47:50;2.80;;;1.30;;
8399;SDS011;4237;47.030;15.396;2022-08-23T00:50:27;0.60;;;0.60;;
8399;SDS011;4237;47.030;15.396;2022-08-23T00:53:07;0.67;;;0.67;;
8399;SDS011;4237;47.030;15.396;2022-08-23T00:55:37;2.03;;;1.00;;
8399;SDS011;4237;47.030;15.396;2022-08-23T00:58:09;2.33;;;1.10;;
8399;SDS011;4237;47.030;15.396;2022-08-23T01:00:40;1.77;;;1.10;;
8399;SDS011;4237;47.030;15.396;2022-08-23T01:03:10;3.33;;;1.40;;
8399;SDS011;4237;47.030;15.396;2022-08-23T01:08:15;2.93;;;2.23;;
8399;SDS011;4237;47.030;15.396;2022-08-23T01:10:56;3.73;;;2.93;;
8399;SDS011;4237;47.030;15.396;2022-08-23T01:13:42;3.80;;;2.47;;
8399;SDS011;4237;47.030;15.396;2022-08-23T01:16:09;3.20;;;2.87;;
8399;SDS011;4237;47.030;15.396;2022-08-23T01:18:40;2.50;;;2.13;;
8399;SDS011;4237;47.030;15.396;2022-08-23T01:21:10;4.77;;;2.20;;
8399;SDS011;4237;47.030;15.396;2022-08-23T01:23:58;2.50;;;2.30;;
8399;SDS011;4237;47.030;15.396;2022-08-23T01:26:24;6.27;;;2.80;;
8399;SDS011;4237;47.030;15.396;2022-08-23T01:28:56;2.40;;;2.20;;
8399;SDS011;4237;47.030;15.396;2022-08-23T01:31:25;4.53;;;2.60;;
8399;SDS011;4237;47.030;15.396;2022-08-23T01:34:02;2.93;;;2.73;;
8399;SDS011;4237;47.030;15.396;2022-08-23T01:36:30;3.20;;;2.90;;
8399;SDS011;4237;47.030;15.396;2022-08-23T01:38:58;2.93;;;2.50;;
8399;SDS011;4237;47.030;15.396;2022-08-23T01:41:27;4.77;;;2.57;;
8399;SDS011;4237;47.030;15.396;2022-08-23T01:43:55;3.30;;;2.87;;
8399;SDS011;4237;47.030;15.396;2022-08-23T01:46:23;4.00;;;2.80;;
8399;SDS011;4237;47.030;15.396;2022-08-23T01:48:53;3.50;;;2.57;;
8399;SDS011;4237;47.030;15.396;2022-08-23T01:51:22;4.60;;;2.90;;
8399;SDS011;4237;47.030;15.396;2022-08-23T01:53:50;2.73;;;2.50;;
8399;SDS011;4237;47.030;15.396;2022-08-23T01:56:18;5.00;;;3.07;;
8399;SDS011;4237;47.030;15.396;2022-08-23T01:58:48;3.07;;;2.70;;
8399;SDS011;4237;47.030;15.396;2022-08-23T02:01:17;3.13;;;2.83;;
8399;SDS011;4237;47.030;15.396;2022-08-23T02:03:47;4.50;;;3.30;;
8399;SDS011;4237;47.030;15.396;2022-08-23T02:06:15;5.17;;;3.10;;
8399;SDS011;4237;47.030;15.396;2022-08-23T02:08:44;4.70;;;3.00;;
8399;SDS011;4237;47.030;15.396;2022-08-23T02:11:29;4.30;;;3.20;;
8399;SDS011;4237;47.030;15.396;2022-08-23T02:13:59;3.03;;;2.83;;
8399;SDS011;4237;47.030;15.396;2022-08-23T02:16:32;4.70;;;3.10;;
8399;SDS011;4237;47.030;15.396;2022-08-23T02:19:01;3.00;;;2.80;;
8399;SDS011;4237;47.030;15.396;2022-08-23T02:21:30;3.80;;;3.10;;
8399;SDS011;4237;47.030;15.396;2022-08-23T02:24:01;4.33;;;3.27;;
8399;SDS011;4237;47.030;15.396;2022-08-23T02:26:28;3.40;;;3.10;;
8399;SDS011;4237;47.030;15.396;2022-08-23T02:28:57;3.37;;;3.00;;
8399;SDS011;4237;47.030;15.396;2022-08-23T02:31:25;3.70;;;3.17;;
8399;SDS011;4237;47.030;15.396;2022-08-23T02:33:53;3.83;;;3.03;;
8399;SDS011;4237;47.030;15.396;2022-08-23T02:36:22;4.57;;;3.17;;
8399;SDS011;4237;47.030;15.396;2022-08-23T02:38:51;5.23;;;3.20;;
8399;SDS011;4237;47.030;15.396;2022-08-23T02:41:19;3.07;;;2.67;;
8399;SDS011;4237;47.030;15.396;2022-08-23T02:43:53;3.57;;;2.53;;
8399;SDS011;4237;47.030;15.396;2022-08-23T02:46:18;2.93;;;2.67;;
8399;SDS011;4237;47.030;15.396;2022-08-23T02:48:47;4.67;;;3.30;;
8399;SDS011;4237;47.030;15.396;2022-08-23T02:51:16;4.07;;;3.00;;
8399;SDS011;4237;47.030;15.396;2022-08-23T02:53:44;3.43;;;2.60;;
8399;SDS011;4237;47.030;15.396;2022-08-23T02:56:13;3.97;;;3.03;;
8399;SDS011;4237;47.030;15.396;2022-08-23T02:58:42;3.70;;;3.23;;
8399;SDS011;4237;47.030;15.396;2022-08-23T03:01:20;4.67;;;3.00;;
8399;SDS011;4237;47.030;15.396;2022-08-23T03:03:44;10.20;;;3.23;;
8399;SDS011;4237;47.030;15.396;2022-08-23T03:06:13;5.80;;;3.50;;
8399;SDS011;4237;47.030;15.396;2022-08-23T03:08:42;5.17;;;3.40;;
8399;SDS011;4237;47.030;15.396;2022-08-23T03:11:12;4.20;;;3.80;;
8399;SDS011;4237;47.030;15.396;2022-08-23T03:13:41;3.80;;;3.30;;
8399;SDS011;4237;47.030;15.396;2022-08-23T03:16:09;4.27;;;3.50;;
8399;SDS011;4237;47.030;15.396;2022-08-23T03:18:38;5.87;;;4.20;;
8399;SDS011;4237;47.030;15.396;2022-08-23T03:21:07;5.30;;;3.20;;
8399;SDS011;4237;47.030;15.396;2022-08-23T03:23:36;5.33;;;3.17;;
8399;SDS011;4237;47.030;15.396;2022-08-23T03:26:06;4.00;;;3.60;;
8399;SDS011;4237;47.030;15.396;2022-08-23T03:28:35;4.47;;;3.10;;
8399;SDS011;4237;47.030;15.396;2022-08-23T03:31:04;3.40;;;3.03;;
8399;SDS011;4237;47.030;15.396;2022-08-23T03:33:34;3.77;;;2.80;;
8399;SDS011;4237;47.030;15.396;2022-08-23T03:36:03;4.40;;;2.83;;
8399;SDS011;4237;47.030;15.396;2022-08-23T03:38:32;3.43;;;2.73;;
8399;SDS011;4237;47.030;15.396;2022-08-23T03:41:01;4.13;;;2.83;;
8399;SDS011;4237;47.030;15.396;2022-08-23T03:43:29;4.90;;;2.93;;
8399;SDS011;4237;47.030;15.396;2022-08-23T03:45:57;4.03;;;2.73;;
8399;SDS011;4237;47.030;15.396;2022-08-23T03:48:26;4.43;;;2.87;;
8399;SDS011;4237;47.030;15.396;2022-08-23T03:50:54;5.13;;;2.83;;
8399;SDS011;4237;47.030;15.396;2022-08-23T03:53:22;3.70;;;2.87;;
8399;SDS011;4237;47.030;15.396;2022-08-23T03:55:51;6.07;;;3.40;;
8399;SDS011;4237;47.030;15.396;2022-08-23T03:58:20;7.07;;;3.10;;
8399;SDS011;4237;47.030;15.396;2022-08-23T04:00:49;3.00;;;2.70;;
8399;SDS011;4237;47.030;15.396;2022-08-23T04:03:17;3.67;;;2.50;;
8399;SDS011;4237;47.030;15.396;2022-08-23T04:05:46;2.60;;;2.30;;
8399;SDS011;4237;47.030;15.396;2022-08-23T04:08:14;3.27;;;2.40;;
8399;SDS011;4237;47.030;15.396;2022-08-23T04:10:42;3.07;;;1.53;;
8399;SDS011;4237;47.030;15.396;2022-08-23T04:13:11;1.07;;;1.03;;
8399;SDS011;4237;47.030;15.396;2022-08-23T04:15:39;1.57;;;1.47;;
8399;SDS011;4237;47.030;15.396;2022-08-23T04:18:07;4.43;;;1.73;;
8399;SDS011;4237;47.030;15.396;2022-08-23T04:20:35;1.90;;;1.33;;
8399;SDS011;4237;47.030;15.396;2022-08-23T04:23:04;1.20;;;1.10;;
8399;SDS011;4237;47.030;15.396;2022-08-23T04:25:32;1.80;;;1.37;;
8399;SDS011;4237;47.030;15.396;2022-08-23T04:28:01;2.07;;;1.50;;
8399;SDS011;4237;47.030;15.396;2022-08-23T04:30:30;1.40;;;1.30;;
8399;SDS011;4237;47.030;15.396;2022-08-23T04:32:59;3.97;;;1.37;;
8399;SDS011;4237;47.030;15.396;2022-08-23T04:35:27;2.20;;;1.57;;
8399;SDS011;4237;47.030;15.396;2022-08-23T04:37:56;3.10;;;1.93;;
8399;SDS011;4237;47.030;15.396;2022-08-23T04:40:24;2.00;;;1.60;;
8399;SDS011;4237;47.030;15.396;2022-08-23T04:43:11;3.00;;;1.70;;
8399;SDS011;4237;47.030;15.396;2022-08-23T04:45:39;1.40;;;1.13;;
8399;SDS011;4237;47.030;15.396;2022-08-23T04:48:08;1.00;;;1.00;;
8399;SDS011;4237;47.030;15.396;2022-08-23T04:50:36;1.80;;;1.00;;
8399;SDS011;4237;47.030;15.396;2022-08-23T04:53:05;1.13;;;1.03;;
8399;SDS011;4237;47.030;15.396;2022-08-23T04:55:33;0.90;;;0.80;;
8399;SDS011;4237;47.030;15.396;2022-08-23T04:58:03;0.80;;;0.80;;
8399;SDS011;4237;47.030;15.396;2022-08-23T05:00:31;1.17;;;1.07;;
8399;SDS011;4237;47.030;15.396;2022-08-23T05:02:59;2.87;;;1.00;;
8399;SDS011;4237;47.030;15.396;2022-08-23T05:05:28;0.67;;;0.67;;
8399;SDS011;4237;47.030;15.396;2022-08-23T05:07:56;0.60;;;0.53;;
8399;SDS011;4237;47.030;15.396;2022-08-23T05:10:24;1.30;;;0.77;;
8399;SDS011;4237;47.030;15.396;2022-08-23T05:12:52;2.10;;;0.50;;
8399;SDS011;4237;47.030;15.396;2022-08-23T05:15:21;1.40;;;1.27;;
8399;SDS011;4237;47.030;15.396;2022-08-23T05:17:49;0.87;;;0.70;;
8399;SDS011;4237;47.030;15.396;2022-08-23T05:20:19;0.50;;;0.50;;
8399;SDS011;4237;47.030;15.396;2022-08-23T05:22:47;1.53;;;0.90;;
8399;SDS011;4237;47.030;15.396;2022-08-23T05:25:16;0.53;;;0.40;;
8399;SDS011;4237;47.030;15.396;2022-08-23T05:27:45;0.83;;;0.60;;
8399;SDS011;4237;47.030;15.396;2022-08-23T05:30:13;1.13;;;0.70;;
8399;SDS011;4237;47.030;15.396;2022-08-23T05:32:42;5.97;;;0.40;;
8399;SDS011;4237;47.030;15.396;2022-08-23T05:35:11;0.73;;;0.50;;
8399;SDS011;4237;47.030;15.396;2022-08-23T05:37:40;1.07;;;0.60;;
8399;SDS011;4237;47.030;15.396;2022-08-23T05:40:08;0.70;;;0.60;;
8399;SDS011;4237;47.030;15.396;2022-08-23T05:42:38;0.73;;;0.43;;
8399;SDS011;4237;47.030;15.396;2022-08-23T05:45:06;0.80;;;0.60;;
8399;SDS011;4237;47.030;15.396;2022-08-23T05:47:35;0.67;;;0.50;;
8399;SDS011;4237;47.030;15.396;2022-08-23T05:50:04;4.33;;;0.93;;
8399;SDS011;4237;47.030;15.396;2022-08-23T05:52:32;1.20;;;0.70;;
8399;SDS011;4237;47.030;15.396;2022-08-23T05:55:00;0.30;;;0.30;;
8399;SDS011;4237;47.030;15.396;2022-08-23T05:57:29;0.97;;;0.60;;
8399;SDS011;4237;47.030;15.396;2022-08-23T05:59:57;0.60;;;0.40;;
8399;SDS011;4237;47.030;15.396;2022-08-23T06:02:26;0.70;;;0.50;;
8399;SDS011;4237;47.030;15.396;2022-08-23T06:04:54;1.17;;;0.70;;
8399;SDS011;4237;47.030;15.396;2022-08-23T06:07:22;2.80;;;0.70;;
8399;SDS011;4237;47.030;15.396;2022-08-23T06:09:50;0.60;;;0.47;;
8399;SDS011;4237;47.030;15.396;2022-08-23T06:12:20;1.37;;;0.50;;
8399;SDS011;4237;47.030;15.396;2022-08-23T06:14:49;1.23;;;0.67;;
8399;SDS011;4237;47.030;15.396;2022-08-23T06:17:17;0.47;;;0.40;;
8399;SDS011;4237;47.030;15.396;2022-08-23T06:19:46;1.10;;;0.60;;
8399;SDS011;4237;47.030;15.396;2022-08-23T06:22:14;2.37;;;0.60;;
8399;SDS011;4237;47.030;15.396;2022-08-23T06:24:43;0.90;;;0.70;;
8399;SDS011;4237;47.030;15.396;2022-08-23T06:27:12;1.53;;;0.90;;
8399;SDS011;4237;47.030;15.396;2022-08-23T06:29:40;2.20;;;0.60;;
8399;SDS011;4237;47.030;15.396;2022-08-23T06:32:09;2.53;;;0.77;;
8399;SDS011;4237;47.030;15.396;2022-08-23T06:34:37;2.23;;;0.60;;
8399;SDS011;4237;47.030;15.396;2022-08-23T06:37:06;0.53;;;0.40;;
8399;SDS011;4237;47.030;15.396;2022-08-23T06:39:35;0.47;;;0.40;;
8399;SDS011;4237;47.030;15.396;2022-08-23T06:42:11;1.30;;;0.63;;
8399;SDS011;4237;47.030;15.396;2022-08-23T06:44:39;1.13;;;0.70;;
8399;SDS011;4237;47.030;15.396;2022-08-23T06:47:07;0.67;;;0.50;;
8399;SDS011;4237;47.030;15.396;2022-08-23T06:49:35;0.67;;;0.60;;
8399;SDS011;4237;47.030;15.396;2022-08-23T06:52:04;1.07;;;0.50;;
8399;SDS011;4237;47.030;15.396;2022-08-23T06:54:33;2.27;;;0.50;;
8399;SDS011;4237;47.030;15.396;2022-08-23T06:57:01;0.53;;;0.40;;
8399;SDS011;4237;47.030;15.396;2022-08-23T06:59:30;1.33;;;0.63;;
8399;SDS011;4237;47.030;15.396;2022-08-23T07:02:04;1.30;;;0.47;;
8399;SDS011;4237;47.030;15.396;2022-08-23T07:04:29;1.23;;;0.40;;
8399;SDS011;4237;47.030;15.396;2022-08-23T07:06:58;1.03;;;0.47;;
8399;SDS011;4237;47.030;15.396;2022-08-23T07:09:28;0.57;;;0.47;;
8399;SDS011;4237;47.030;15.396;2022-08-23T07:11:57;0.53;;;0.40;;
8399;SDS011;4237;47.030;15.396;2022-08-23T07:14:26;1.27;;;0.67;;
8399;SDS011;4237;47.030;15.396;2022-08-23T07:16:55;0.87;;;0.40;;
8399;SDS011;4237;47.030;15.396;2022-08-23T07:19:28;0.77;;;0.70;;
8399;SDS011;4237;47.030;15.396;2022-08-23T07:22:01;0.43;;;0.30;;
8399;SDS011;4237;47.030;15.396;2022-08-23T07:24:25;0.30;;;0.30;;
8399;SDS011;4237;47.030;15.396;2022-08-23T07:26:54;0.57;;;0.50;;
8399;SDS011;4237;47.030;15.396;2022-08-23T07:29:22;0.80;;;0.50;;
8399;SDS011;4237;47.030;15.396;2022-08-23T07:31:51;0.77;;;0.50;;
8399;SDS011;4237;47.030;15.396;2022-08-23T07:34:20;2.40;;;0.83;;
8399;SDS011;4237;47.030;15.396;2022-08-23T07:36:49;0.77;;;0.60;;
8399;SDS011;4237;47.030;15.396;2022-08-23T07:39:19;1.37;;;0.73;;
8399;SDS011;4237;47.030;15.396;2022-08-23T07:41:47;0.40;;;0.40;;
8399;SDS011;4237;47.030;15.396;2022-08-23T07:44:15;1.87;;;0.70;;
8399;SDS011;4237;47.030;15.396;2022-08-23T07:46:44;2.17;;;0.40;;
8399;SDS011;4237;47.030;15.396;2022-08-23T07:49:13;0.70;;;0.50;;
8399;SDS011;4237;47.030;15.396;2022-08-23T07:51:43;0.80;;;0.40;;
8399;SDS011;4237;47.030;15.396;2022-08-23T07:54:11;1.93;;;0.47;;
8399;SDS011;4237;47.030;15.396;2022-08-23T07:56:40;0.60;;;0.60;;
8399;SDS011;4237;47.030;15.396;2022-08-23T07:59:08;0.60;;;0.40;;
8399;SDS011;4237;47.030;15.396;2022-08-23T08:01:37;0.70;;;0.40;;
8399;SDS011;4237;47.030;15.396;2022-08-23T08:04:09;1.03;;;0.60;;
8399;SDS011;4237;47.030;15.396;2022-08-23T08:06:43;2.40;;;0.40;;
8399;SDS011;4237;47.030;15.396;2022-08-23T08:09:12;0.70;;;0.50;;
8399;SDS011;4237;47.030;15.396;2022-08-23T08:11:43;0.40;;;0.27;;
8399;SDS011;4237;47.030;15.396;2022-08-23T08:14:15;0.60;;;0.40;;
8399;SDS011;4237;47.030;15.396;2022-08-23T08:16:45;1.83;;;0.50;;
8399;SDS011;4237;47.030;15.396;2022-08-23T08:19:14;1.43;;;0.53;;
8399;SDS011;4237;47.030;15.396;2022-08-23T08:21:44;3.63;;;0.40;;
8399;SDS011;4237;47.030;15.396;2022-08-23T08:24:13;1.13;;;0.47;;
8399;SDS011;4237;47.030;15.396;2022-08-23T08:26:42;0.90;;;0.40;;
8399;SDS011;4237;47.030;15.396;2022-08-23T08:29:11;0.98;;;0.50;;
8399;SDS011;4237;47.030;15.396;2022-08-23T08:31:41;1.82;;;0.70;;
8399;SDS011;4237;47.030;15.396;2022-08-23T08:34:11;1.05;;;0.40;;
8399;SDS011;4237;47.030;15.396;2022-08-23T08:36:45;1.12;;;0.62;;
8399;SDS011;4237;47.030;15.396;2022-08-23T08:39:17;0.85;;;0.40;;
8399;SDS011;4237;47.030;15.396;2022-08-23T08:45:04;1.40;;;0.40;;
8399;SDS011;4237;47.030;15.396;2022-08-23T08:52:48;0.50;;;0.50;;
8399;SDS011;4237;47.030;15.396;2022-08-23T08:55:18;1.73;;;0.50;;
8399;SDS011;4237;47.030;15.396;2022-08-23T08:57:46;0.93;;;0.40;;
8399;SDS011;4237;47.030;15.396;2022-08-23T09:00:25;0.43;;;0.30;;
8399;SDS011;4237;47.030;15.396;2022-08-23T09:02:54;0.30;;;0.30;;
8399;SDS011;4237;47.030;15.396;2022-08-23T09:05:30;0.60;;;0.50;;
8399;SDS011;4237;47.030;15.396;2022-08-23T09:10:52;0.63;;;0.30;;
8399;SDS011;4237;47.030;15.396;2022-08-23T09:15:54;0.43;;;0.30;;
8399;SDS011;4237;47.030;15.396;2022-08-23T09:18:20;0.60;;;0.40;;
8399;SDS011;4237;47.030;15.396;2022-08-23T09:20:51;0.50;;;0.30;;
8399;SDS011;4237;47.030;15.396;2022-08-23T09:23:35;0.30;;;0.30;;
8399;SDS011;4237;47.030;15.396;2022-08-23T09:25:58;0.70;;;0.50;;
8399;SDS011;4237;47.030;15.396;2022-08-23T09:28:32;1.17;;;0.47;;
8399;SDS011;4237;47.030;15.396;2022-08-23T09:31:01;0.90;;;0.40;;
8399;SDS011;4237;47.030;15.396;2022-08-23T09:33:37;1.60;;;0.57;;
8399;SDS011;4237;47.030;15.396;2022-08-23T09:36:29;0.40;;;0.37;;
8399;SDS011;4237;47.030;15.396;2022-08-23T09:38:55;1.00;;;0.40;;
8399;SDS011;4237;47.030;15.396;2022-08-23T09:41:26;1.50;;;0.40;;
8399;SDS011;4237;47.030;15.396;2022-08-23T09:43:54;0.73;;;0.33;;
8399;SDS011;4237;47.030;15.396;2022-08-23T09:46:26;0.30;;;0.30;;
8399;SDS011;4237;47.030;15.396;2022-08-23T09:48:55;0.57;;;0.30;;
8399;SDS011;4237;47.030;15.396;2022-08-23T09:51:31;0.50;;;0.50;;
8399;SDS011;4237;47.030;15.396;2022-08-23T09:54:09;0.35;;;0.30;;
8399;SDS011;4237;47.030;15.396;2022-08-23T09:56:32;0.70;;;0.50;;
8399;SDS011;4237;47.030;15.396;2022-08-23T09:59:00;0.55;;;0.30;;
8399;SDS011;4237;47.030;15.396;2022-08-23T10:01:29;1.75;;;0.53;;
8399;SDS011;4237;47.030;15.396;2022-08-23T10:04:09;0.80;;;0.40;;
8399;SDS011;4237;47.030;15.396;2022-08-23T10:06:37;5.35;;;0.50;;
8399;SDS011;4237;47.030;15.396;2022-08-23T10:09:08;1.00;;;0.47;;
8399;SDS011;4237;47.030;15.396;2022-08-23T10:11:38;0.40;;;0.35;;
8399;SDS011;4237;47.030;15.396;2022-08-23T10:14:07;1.40;;;0.40;;
8399;SDS011;4237;47.030;15.396;2022-08-23T10:16:39;0.53;;;0.37;;
8399;SDS011;4237;47.030;15.396;2022-08-23T10:19:26;0.40;;;0.30;;
8399;SDS011;4237;47.030;15.396;2022-08-23T10:24:33;0.25;;;0.25;;
8399;SDS011;4237;47.030;15.396;2022-08-23T10:27:02;1.87;;;0.50;;
8399;SDS011;4237;47.030;15.396;2022-08-23T10:29:41;0.47;;;0.40;;
8399;SDS011;4237;47.030;15.396;2022-08-23T10:32:13;0.78;;;0.35;;
8399;SDS011;4237;47.030;15.396;2022-08-23T10:34:41;0.20;;;0.20;;
8399;SDS011;4237;47.030;15.396;2022-08-23T10:40:00;0.98;;;0.47;;
8399;SDS011;4237;47.030;15.396;2022-08-23T10:45:15;1.33;;;0.70;;
8399;SDS011;4237;47.030;15.396;2022-08-23T10:47:49;0.40;;;0.40;;
8399;SDS011;4237;47.030;15.396;2022-08-23T10:50:14;0.80;;;0.60;;
8399;SDS011;4237;47.030;15.396;2022-08-23T10:52:50;0.90;;;0.30;;
8399;SDS011;4237;47.030;15.396;2022-08-23T10:55:20;0.40;;;0.40;;
8399;SDS011;4237;47.030;15.396;2022-08-23T10:57:48;1.13;;;0.70;;
8399;SDS011;4237;47.030;15.396;2022-08-23T11:00:20;1.20;;;0.57;;
8399;SDS011;4237;47.030;15.396;2022-08-23T11:05:26;3.37;;;0.67;;
8399;SDS011;4237;47.030;15.396;2022-08-23T11:08:08;1.03;;;0.60;;
8399;SDS011;4237;47.030;15.396;2022-08-23T11:13:17;0.53;;;0.53;;
8399;SDS011;4237;47.030;15.396;2022-08-23T11:18:09;2.03;;;0.50;;
8399;SDS011;4237;47.030;15.396;2022-08-23T11:23:45;0.60;;;0.60;;
8399;SDS011;4237;47.030;15.396;2022-08-23T11:25:51;1.13;;;0.70;;
8399;SDS011;4237;47.030;15.396;2022-08-23T11:33:44;1.00;;;0.70;;
8399;SDS011;4237;47.030;15.396;2022-08-23T11:51:41;1.70;;;0.80;;
8399;SDS011;4237;47.030;15.396;2022-08-23T11:54:18;3.37;;;1.00;;
8399;SDS011;4237;47.030;15.396;2022-08-23T11:56:47;1.03;;;0.70;;
8399;SDS011;4237;47.030;15.396;2022-08-23T12:01:43;1.00;;;0.80;;
8399;SDS011;4237;47.030;15.396;2022-08-23T12:06:54;2.00;;;0.90;;
8399;SDS011;4237;47.030;15.396;2022-08-23T12:17:01;1.73;;;0.70;;
8399;SDS011;4237;47.030;15.396;2022-08-23T12:19:42;1.00;;;0.90;;
8399;SDS011;4237;47.030;15.396;2022-08-23T12:22:14;1.20;;;1.00;;
8399;SDS011;4237;47.030;15.396;2022-08-23T12:24:46;0.80;;;0.80;;
8399;SDS011;4237;47.030;15.396;2022-08-23T12:32:36;2.10;;;0.90;;
8399;SDS011;4237;47.030;15.396;2022-08-23T12:37:51;1.17;;;0.93;;
8399;SDS011;4237;47.030;15.396;2022-08-23T12:40:29;0.60;;;0.60;;
8399;SDS011;4237;47.030;15.396;2022-08-23T12:43:09;2.63;;;0.80;;
8399;SDS011;4237;47.030;15.396;2022-08-23T12:45:40;0.80;;;0.80;;
8399;SDS011;4237;47.030;15.396;2022-08-23T12:48:06;0.90;;;0.70;;
8399;SDS011;4237;47.030;15.396;2022-08-23T12:50:36;2.30;;;0.90;;
8399;SDS011;4237;47.030;15.396;2022-08-23T12:53:11;0.93;;;0.80;;
8399;SDS011;4237;47.030;15.396;2022-08-23T12:55:41;1.67;;;0.80;;
8399;SDS011;4237;47.030;15.396;2022-08-23T12:58:09;0.60;;;0.53;;
8399;SDS011;4237;47.030;15.396;2022-08-23T13:00:39;0.60;;;0.60;;
8399;SDS011;4237;47.030;15.396;2022-08-23T13:03:13;3.60;;;0.70;;
8399;SDS011;4237;47.030;15.396;2022-08-23T13:05:56;2.17;;;0.77;;
8399;SDS011;4237;47.030;15.396;2022-08-23T13:08:25;1.20;;;0.63;;
8399;SDS011;4237;47.030;15.396;2022-08-23T13:10:53;0.90;;;0.90;;
8399;SDS011;4237;47.030;15.396;2022-08-23T13:13:23;2.93;;;0.90;;
8399;SDS011;4237;47.030;15.396;2022-08-23T13:15:53;1.40;;;0.70;;
8399;SDS011;4237;47.030;15.396;2022-08-23T13:18:27;1.93;;;0.80;;
8399;SDS011;4237;47.030;15.396;2022-08-23T13:23:41;0.90;;;0.70;;
8399;SDS011;4237;47.030;15.396;2022-08-23T13:26:33;2.13;;;0.70;;
8399;SDS011;4237;47.030;15.396;2022-08-23T13:29:05;0.90;;;0.60;;
8399;SDS011;4237;47.030;15.396;2022-08-23T13:34:42;2.93;;;0.90;;
8399;SDS011;4237;47.030;15.396;2022-08-23T13:37:26;0.70;;;0.70;;
8399;SDS011;4237;47.030;15.396;2022-08-23T13:39:54;1.23;;;0.80;;
8399;SDS011;4237;47.030;15.396;2022-08-23T13:42:33;1.27;;;0.90;;
8399;SDS011;4237;47.030;15.396;2022-08-23T13:44:54;0.90;;;0.63;;
8399;SDS011;4237;47.030;15.396;2022-08-23T13:47:24;2.80;;;0.67;;
8399;SDS011;4237;47.030;15.396;2022-08-23T13:49:52;1.43;;;0.90;;
8399;SDS011;4237;47.030;15.396;2022-08-23T13:52:21;0.70;;;0.70;;
8399;SDS011;4237;47.030;15.396;2022-08-23T13:54:49;1.03;;;0.70;;
8399;SDS011;4237;47.030;15.396;2022-08-23T13:57:18;1.40;;;0.80;;
8399;SDS011;4237;47.030;15.396;2022-08-23T13:59:47;1.30;;;0.77;;
8399;SDS011;4237;47.030;15.396;2022-08-23T14:02:17;0.93;;;0.83;;
8399;SDS011;4237;47.030;15.396;2022-08-23T14:04:45;1.20;;;0.83;;
8399;SDS011;4237;47.030;15.396;2022-08-23T14:07:14;1.13;;;0.70;;
8399;SDS011;4237;47.030;15.396;2022-08-23T14:09:42;1.43;;;0.70;;
8399;SDS011;4237;47.030;15.396;2022-08-23T14:12:18;0.70;;;0.70;;
8399;SDS011;4237;47.030;15.396;2022-08-23T14:14:46;2.77;;;0.70;;
8399;SDS011;4237;47.030;15.396;2022-08-23T14:17:15;0.50;;;0.50;;
8399;SDS011;4237;47.030;15.396;2022-08-23T14:19:44;3.07;;;1.00;;
8399;SDS011;4237;47.030;15.396;2022-08-23T14:22:13;0.93;;;0.70;;
8399;SDS011;4237;47.030;15.396;2022-08-23T14:24:43;4.80;;;1.07;;
8399;SDS011;4237;47.030;15.396;2022-08-23T14:27:12;1.90;;;0.73;;
8399;SDS011;4237;47.030;15.396;2022-08-23T14:29:40;1.50;;;0.90;;
8399;SDS011;4237;47.030;15.396;2022-08-23T14:32:09;1.47;;;0.90;;
8399;SDS011;4237;47.030;15.396;2022-08-23T14:34:37;5.67;;;0.90;;
8399;SDS011;4237;47.030;15.396;2022-08-23T14:37:05;0.73;;;0.70;;
8399;SDS011;4237;47.030;15.396;2022-08-23T14:39:34;1.50;;;0.60;;
8399;SDS011;4237;47.030;15.396;2022-08-23T14:42:02;2.20;;;0.77;;
8399;SDS011;4237;47.030;15.396;2022-08-23T14:44:31;1.83;;;0.70;;
8399;SDS011;4237;47.030;15.396;2022-08-23T14:46:59;0.90;;;0.60;;
8399;SDS011;4237;47.030;15.396;2022-08-23T14:49:27;0.67;;;0.60;;
8399;SDS011;4237;47.030;15.396;2022-08-23T14:51:55;0.60;;;0.60;;
8399;SDS011;4237;47.030;15.396;2022-08-23T14:54:24;4.53;;;0.80;;
8399;SDS011;4237;47.030;15.396;2022-08-23T14:56:53;1.37;;;0.60;;
8399;SDS011;4237;47.030;15.396;2022-08-23T14:59:22;1.80;;;0.70;;
8399;SDS011;4237;47.030;15.396;2022-08-23T15:01:50;1.10;;;0.77;;
8399;SDS011;4237;47.030;15.396;2022-08-23T15:04:20;1.73;;;0.70;;
8399;SDS011;4237;47.030;15.396;2022-08-23T15:06:49;0.70;;;0.60;;
8399;SDS011;4237;47.030;15.396;2022-08-23T15:09:18;1.63;;;0.70;;
8399;SDS011;4237;47.030;15.396;2022-08-23T15:11:46;3.73;;;0.77;;
8399;SDS011;4237;47.030;15.396;2022-08-23T15:14:14;0.70;;;0.60;;
8399;SDS011;4237;47.030;15.396;2022-08-23T15:16:43;1.77;;;0.70;;
8399;SDS011;4237;47.030;15.396;2022-08-23T15:19:11;1.43;;;0.70;;
8399;SDS011;4237;47.030;15.396;2022-08-23T15:21:40;2.57;;;0.60;;
8399;SDS011;4237;47.030;15.396;2022-08-23T15:24:08;1.80;;;0.70;;
8399;SDS011;4237;47.030;15.396;2022-08-23T15:26:37;2.20;;;0.67;;
8399;SDS011;4237;47.030;15.396;2022-08-23T15:29:05;1.00;;;0.67;;
8399;SDS011;4237;47.030;15.396;2022-08-23T15:31:33;3.10;;;0.80;;
8399;SDS011;4237;47.030;15.396;2022-08-23T15:34:02;1.33;;;0.70;;
8399;SDS011;4237;47.030;15.396;2022-08-23T15:36:30;2.47;;;0.90;;
8399;SDS011;4237;47.030;15.396;2022-08-23T15:38:59;0.77;;;0.70;;
8399;SDS011;4237;47.030;15.396;2022-08-23T15:41:27;3.20;;;1.07;;
8399;SDS011;4237;47.030;15.396;2022-08-23T15:43:56;1.13;;;0.80;;
8399;SDS011;4237;47.030;15.396;2022-08-23T15:46:24;1.67;;;0.70;;
8399;SDS011;4237;47.030;15.396;2022-08-23T15:48:54;0.57;;;0.57;;
8399;SDS011;4237;47.030;15.396;2022-08-23T15:51:22;1.27;;;0.77;;
8399;SDS011;4237;47.030;15.396;2022-08-23T15:53:50;1.80;;;0.80;;
8399;SDS011;4237;47.030;15.396;2022-08-23T15:56:20;2.70;;;1.30;;
8399;SDS011;4237;47.030;15.396;2022-08-23T15:58:48;1.53;;;1.13;;
8399;SDS011;4237;47.030;15.396;2022-08-23T16:01:17;3.30;;;1.30;;
8399;SDS011;4237;47.030;15.396;2022-08-23T16:03:45;3.80;;;1.30;;
8399;SDS011;4237;47.030;15.396;2022-08-23T16:06:14;0.90;;;0.90;;
8399;SDS011;4237;47.030;15.396;2022-08-23T16:08:44;1.23;;;1.10;;
8399;SDS011;4237;47.030;15.396;2022-08-23T16:11:13;2.70;;;1.33;;
8399;SDS011;4237;47.030;15.396;2022-08-23T16:13:42;1.20;;;1.10;;
8399;SDS011;4237;47.030;15.396;2022-08-23T16:16:13;1.10;;;1.00;;
8399;SDS011;4237;47.030;15.396;2022-08-23T16:18:41;4.87;;;1.17;;
8399;SDS011;4237;47.030;15.396;2022-08-23T16:21:09;3.07;;;1.13;;
8399;SDS011;4237;47.030;15.396;2022-08-23T16:23:38;0.83;;;0.83;;
8399;SDS011;4237;47.030;15.396;2022-08-23T16:26:09;3.47;;;1.20;;
8399;SDS011;4237;47.030;15.396;2022-08-23T16:28:39;1.87;;;0.90;;
8399;SDS011;4237;47.030;15.396;2022-08-23T16:31:07;5.30;;;1.80;;
8399;SDS011;4237;47.030;15.396;2022-08-23T16:33:36;2.23;;;1.40;;
8399;SDS011;4237;47.030;15.396;2022-08-23T16:36:04;3.53;;;1.03;;
8399;SDS011;4237;47.030;15.396;2022-08-23T16:38:33;1.47;;;0.70;;
8399;SDS011;4237;47.030;15.396;2022-08-23T16:41:02;1.30;;;0.60;;
8399;SDS011;4237;47.030;15.396;2022-08-23T16:43:30;2.90;;;0.70;;
8399;SDS011;4237;47.030;15.396;2022-08-23T16:45:59;1.00;;;0.90;;